sensor_id;sensor_type;location;lat;lon;timestamp;P1;durP1;ratioP1;P2;durP2;ratioP2
60312;SDS011;46158;52.850;6.970;2022-08-04T00:00:26;9.48;;;3.35;;
60312;SDS011;46158;52.850;6.970;2022-08-04T00:05:59;7.53;;;3.40;;
60312;SDS011;46158;52.850;6.970;2022-08-04T00:11:03;10.13;;;3.55;;
60312;SDS011;46158;52.850;6.970;2022-08-04T00:13:31;11.35;;;3.70;;
60312;SDS011;46158;52.850;6.970;2022-08-04T00:16:03;9.82;;;3.63;;
60312;SDS011;46158;52.850;6.970;2022-08-04T00:18:33;8.55;;;3.40;;
60312;SDS011;46158;52.850;6.970;2022-08-04T00:21:05;7.53;;;3.42;;
60312;SDS011;46158;52.850;6.970;2022-08-04T00:23:34;9.55;;;3.67;;
60312;SDS011;46158;52.850;6.970;2022-08-04T00:26:01;10.25;;;3.60;;
60312;SDS011;46158;52.850;6.970;2022-08-04T00:28:27;12.68;;;3.70;;
60312;SDS011;46158;52.850;6.970;2022-08-04T00:30:53;9.65;;;3.53;;
60312;SDS011;46158;52.850;6.970;2022-08-04T00:33:19;8.57;;;3.65;;
60312;SDS011;46158;52.850;6.970;2022-08-04T00:35:48;9.85;;;3.75;;
60312;SDS011;46158;52.850;6.970;2022-08-04T00:38:15;8.50;;;3.90;;
60312;SDS011;46158;52.850;6.970;2022-08-04T00:49:14;8.82;;;3.70;;
60312;SDS011;46158;52.850;6.970;2022-08-04T00:52:22;11.45;;;3.53;;
60312;SDS011;46158;52.850;6.970;2022-08-04T00:55:03;9.70;;;3.92;;
60312;SDS011;46158;52.850;6.970;2022-08-04T01:00:05;9.43;;;3.80;;
60312;SDS011;46158;52.850;6.970;2022-08-04T01:05:30;7.90;;;3.58;;
60312;SDS011;46158;52.850;6.970;2022-08-04T01:13:54;8.80;;;3.63;;
60312;SDS011;46158;52.850;6.970;2022-08-04T01:16:27;8.20;;;3.42;;
60312;SDS011;46158;52.850;6.970;2022-08-04T01:30:08;8.98;;;3.60;;
60312;SDS011;46158;52.850;6.970;2022-08-04T01:32:38;11.68;;;3.65;;
60312;SDS011;46158;52.850;6.970;2022-08-04T01:35:25;9.63;;;3.72;;
60312;SDS011;46158;52.850;6.970;2022-08-04T01:38:00;8.48;;;3.65;;
60312;SDS011;46158;52.850;6.970;2022-08-04T01:40:33;10.38;;;3.85;;
60312;SDS011;46158;52.850;6.970;2022-08-04T01:43:01;12.00;;;3.97;;
60312;SDS011;46158;52.850;6.970;2022-08-04T01:45:29;6.78;;;3.40;;
60312;SDS011;46158;52.850;6.970;2022-08-04T01:47:55;10.00;;;3.50;;
60312;SDS011;46158;52.850;6.970;2022-08-04T01:50:22;10.48;;;3.78;;
60312;SDS011;46158;52.850;6.970;2022-08-04T01:52:51;10.57;;;3.83;;
60312;SDS011;46158;52.850;6.970;2022-08-04T01:55:18;10.50;;;4.00;;
60312;SDS011;46158;52.850;6.970;2022-08-04T01:57:45;11.95;;;4.07;;
60312;SDS011;46158;52.850;6.970;2022-08-04T02:00:14;10.23;;;3.88;;
60312;SDS011;46158;52.850;6.970;2022-08-04T02:02:41;9.82;;;3.78;;
60312;SDS011;46158;52.850;6.970;2022-08-04T02:05:09;9.82;;;3.65;;
60312;SDS011;46158;52.850;6.970;2022-08-04T02:10:26;11.60;;;3.85;;
60312;SDS011;46158;52.850;6.970;2022-08-04T02:16:03;8.93;;;3.75;;
60312;SDS011;46158;52.850;6.970;2022-08-04T02:21:15;9.88;;;3.90;;
60312;SDS011;46158;52.850;6.970;2022-08-04T02:23:44;10.88;;;3.92;;
60312;SDS011;46158;52.850;6.970;2022-08-04T02:26:16;9.65;;;3.63;;
60312;SDS011;46158;52.850;6.970;2022-08-04T02:28:45;10.13;;;3.85;;
60312;SDS011;46158;52.850;6.970;2022-08-04T02:33:59;15.43;;;4.35;;
60312;SDS011;46158;52.850;6.970;2022-08-04T02:36:34;9.80;;;3.90;;
60312;SDS011;46158;52.850;6.970;2022-08-04T02:39:03;12.13;;;4.05;;
60312;SDS011;46158;52.850;6.970;2022-08-04T02:41:31;11.73;;;4.35;;
60312;SDS011;46158;52.850;6.970;2022-08-04T02:43:59;12.75;;;4.20;;
60312;SDS011;46158;52.850;6.970;2022-08-04T02:46:26;10.90;;;3.75;;
60312;SDS011;46158;52.850;6.970;2022-08-04T02:48:53;14.30;;;4.50;;
60312;SDS011;46158;52.850;6.970;2022-08-04T02:51:29;10.85;;;3.75;;
60312;SDS011;46158;52.850;6.970;2022-08-04T02:53:58;11.18;;;4.00;;
60312;SDS011;46158;52.850;6.970;2022-08-04T02:56:26;11.23;;;3.88;;
60312;SDS011;46158;52.850;6.970;2022-08-04T02:59:00;11.57;;;3.72;;
60312;SDS011;46158;52.850;6.970;2022-08-04T03:01:31;12.75;;;3.97;;
60312;SDS011;46158;52.850;6.970;2022-08-04T03:07:10;10.65;;;3.83;;
60312;SDS011;46158;52.850;6.970;2022-08-04T03:09:50;9.98;;;4.35;;
60312;SDS011;46158;52.850;6.970;2022-08-04T03:43:00;13.55;;;3.90;;
60312;SDS011;46158;52.850;6.970;2022-08-04T03:48:43;13.18;;;4.55;;
60312;SDS011;46158;52.850;6.970;2022-08-04T03:51:42;13.57;;;3.92;;
60312;SDS011;46158;52.850;6.970;2022-08-04T04:00:19;12.70;;;3.80;;
60312;SDS011;46158;52.850;6.970;2022-08-04T04:30:54;14.30;;;3.95;;
60312;SDS011;46158;52.850;6.970;2022-08-04T04:36:30;12.85;;;3.85;;
60312;SDS011;46158;52.850;6.970;2022-08-04T04:41:53;9.77;;;3.92;;
60312;SDS011;46158;52.850;6.970;2022-08-04T04:47:48;10.38;;;3.72;;
60312;SDS011;46158;52.850;6.970;2022-08-04T04:50:20;12.23;;;3.70;;
60312;SDS011;46158;52.850;6.970;2022-08-04T04:52:54;12.00;;;3.85;;
60312;SDS011;46158;52.850;6.970;2022-08-04T04:55:28;11.20;;;3.50;;
60312;SDS011;46158;52.850;6.970;2022-08-04T04:57:59;10.32;;;3.65;;
60312;SDS011;46158;52.850;6.970;2022-08-04T05:00:50;9.82;;;3.53;;
60312;SDS011;46158;52.850;6.970;2022-08-04T05:14:09;8.60;;;3.10;;
60312;SDS011;46158;52.850;6.970;2022-08-04T05:16:53;8.90;;;3.40;;
60312;SDS011;46158;52.850;6.970;2022-08-04T05:19:33;6.32;;;3.10;;
60312;SDS011;46158;52.850;6.970;2022-08-04T05:22:07;12.15;;;3.70;;
60312;SDS011;46158;52.850;6.970;2022-08-04T05:24:37;6.45;;;2.83;;
60312;SDS011;46158;52.850;6.970;2022-08-04T05:27:50;8.02;;;3.30;;
60312;SDS011;46158;52.850;6.970;2022-08-04T05:30:01;7.47;;;2.95;;
60312;SDS011;46158;52.850;6.970;2022-08-04T05:32:34;6.85;;;2.70;;
60312;SDS011;46158;52.850;6.970;2022-08-04T05:35:11;6.43;;;2.85;;
60312;SDS011;46158;52.850;6.970;2022-08-04T05:37:51;7.55;;;3.00;;
60312;SDS011;46158;52.850;6.970;2022-08-04T05:40:20;8.33;;;3.10;;
60312;SDS011;46158;52.850;6.970;2022-08-04T05:42:48;6.90;;;2.78;;
60312;SDS011;46158;52.850;6.970;2022-08-04T05:45:15;6.50;;;3.00;;
60312;SDS011;46158;52.850;6.970;2022-08-04T05:47:42;8.60;;;2.95;;
60312;SDS011;46158;52.850;6.970;2022-08-04T05:50:09;8.32;;;2.90;;
60312;SDS011;46158;52.850;6.970;2022-08-04T05:52:35;10.95;;;3.00;;
60312;SDS011;46158;52.850;6.970;2022-08-04T05:55:03;7.65;;;2.70;;
60312;SDS011;46158;52.850;6.970;2022-08-04T05:57:29;8.80;;;2.70;;
60312;SDS011;46158;52.850;6.970;2022-08-04T05:59:59;9.85;;;2.80;;
60312;SDS011;46158;52.850;6.970;2022-08-04T06:02:25;5.85;;;2.70;;
60312;SDS011;46158;52.850;6.970;2022-08-04T06:04:52;6.22;;;2.50;;
60312;SDS011;46158;52.850;6.970;2022-08-04T06:07:20;10.52;;;3.05;;
60312;SDS011;46158;52.850;6.970;2022-08-04T06:09:45;8.25;;;3.00;;
60312;SDS011;46158;52.850;6.970;2022-08-04T06:12:16;7.88;;;2.70;;
60312;SDS011;46158;52.850;6.970;2022-08-04T06:14:46;8.70;;;2.70;;
60312;SDS011;46158;52.850;6.970;2022-08-04T06:17:26;7.75;;;2.95;;
60312;SDS011;46158;52.850;6.970;2022-08-04T06:19:57;6.32;;;3.00;;
60312;SDS011;46158;52.850;6.970;2022-08-04T06:22:25;10.15;;;2.78;;
60312;SDS011;46158;52.850;6.970;2022-08-04T06:24:53;9.10;;;3.15;;
60312;SDS011;46158;52.850;6.970;2022-08-04T06:27:20;9.52;;;2.90;;
60312;SDS011;46158;52.850;6.970;2022-08-04T06:29:48;6.55;;;2.90;;
60312;SDS011;46158;52.850;6.970;2022-08-04T06:32:14;6.55;;;2.92;;
60312;SDS011;46158;52.850;6.970;2022-08-04T06:34:51;9.50;;;3.05;;
60312;SDS011;46158;52.850;6.970;2022-08-04T06:37:31;11.50;;;3.20;;
60312;SDS011;46158;52.850;6.970;2022-08-04T06:39:58;7.78;;;2.80;;
60312;SDS011;46158;52.850;6.970;2022-08-04T06:42:25;8.57;;;2.58;;
60312;SDS011;46158;52.850;6.970;2022-08-04T06:44:56;12.75;;;3.20;;
60312;SDS011;46158;52.850;6.970;2022-08-04T06:47:23;7.32;;;2.75;;
60312;SDS011;46158;52.850;6.970;2022-08-04T06:49:50;8.55;;;3.08;;
60312;SDS011;46158;52.850;6.970;2022-08-04T06:52:17;8.10;;;2.80;;
60312;SDS011;46158;52.850;6.970;2022-08-04T06:54:44;8.90;;;2.88;;
60312;SDS011;46158;52.850;6.970;2022-08-04T06:57:12;5.43;;;2.72;;
60312;SDS011;46158;52.850;6.970;2022-08-04T06:59:41;8.10;;;3.00;;
60312;SDS011;46158;52.850;6.970;2022-08-04T07:02:11;6.95;;;2.78;;
60312;SDS011;46158;52.850;6.970;2022-08-04T07:04:43;8.20;;;3.20;;
60312;SDS011;46158;52.850;6.970;2022-08-04T07:07:10;5.63;;;2.63;;
60312;SDS011;46158;52.850;6.970;2022-08-04T07:09:36;11.68;;;2.80;;
60312;SDS011;46158;52.850;6.970;2022-08-04T07:12:03;10.15;;;3.00;;
60312;SDS011;46158;52.850;6.970;2022-08-04T07:14:30;10.50;;;3.00;;
60312;SDS011;46158;52.850;6.970;2022-08-04T07:16:59;7.53;;;2.50;;
60312;SDS011;46158;52.850;6.970;2022-08-04T07:19:29;9.07;;;2.95;;
60312;SDS011;46158;52.850;6.970;2022-08-04T07:21:55;7.80;;;2.80;;
60312;SDS011;46158;52.850;6.970;2022-08-04T07:24:28;11.75;;;3.13;;
60312;SDS011;46158;52.850;6.970;2022-08-04T07:27:05;9.93;;;2.90;;
60312;SDS011;46158;52.850;6.970;2022-08-04T07:29:34;7.57;;;2.47;;
60312;SDS011;46158;52.850;6.970;2022-08-04T07:32:00;7.65;;;2.60;;
60312;SDS011;46158;52.850;6.970;2022-08-04T07:34:29;7.43;;;2.87;;
60312;SDS011;46158;52.850;6.970;2022-08-04T07:36:57;9.07;;;3.00;;
60312;SDS011;46158;52.850;6.970;2022-08-04T07:39:25;8.93;;;2.83;;
60312;SDS011;46158;52.850;6.970;2022-08-04T07:41:52;7.18;;;2.72;;
60312;SDS011;46158;52.850;6.970;2022-08-04T07:44:19;6.28;;;2.53;;
60312;SDS011;46158;52.850;6.970;2022-08-04T07:46:45;5.57;;;2.50;;
60312;SDS011;46158;52.850;6.970;2022-08-04T07:49:11;6.60;;;2.90;;
60312;SDS011;46158;52.850;6.970;2022-08-04T07:51:37;7.05;;;2.90;;
60312;SDS011;46158;52.850;6.970;2022-08-04T07:54:04;8.90;;;2.75;;
60312;SDS011;46158;52.850;6.970;2022-08-04T07:56:36;7.68;;;2.75;;
60312;SDS011;46158;52.850;6.970;2022-08-04T07:59:04;11.45;;;2.90;;
60312;SDS011;46158;52.850;6.970;2022-08-04T08:01:31;7.03;;;2.80;;
60312;SDS011;46158;52.850;6.970;2022-08-04T08:03:59;6.82;;;2.80;;
60312;SDS011;46158;52.850;6.970;2022-08-04T08:06:25;6.60;;;2.72;;
60312;SDS011;46158;52.850;6.970;2022-08-04T08:08:53;8.02;;;2.67;;
60312;SDS011;46158;52.850;6.970;2022-08-04T08:11:19;7.35;;;2.80;;
60312;SDS011;46158;52.850;6.970;2022-08-04T08:13:45;7.28;;;2.80;;
60312;SDS011;46158;52.850;6.970;2022-08-04T08:16:11;7.70;;;2.88;;
60312;SDS011;46158;52.850;6.970;2022-08-04T08:18:37;5.38;;;2.63;;
60312;SDS011;46158;52.850;6.970;2022-08-04T08:21:03;9.02;;;2.90;;
60312;SDS011;46158;52.850;6.970;2022-08-04T08:23:29;7.97;;;2.70;;
60312;SDS011;46158;52.850;6.970;2022-08-04T08:25:58;5.47;;;2.30;;
60312;SDS011;46158;52.850;6.970;2022-08-04T08:28:24;9.25;;;2.65;;
60312;SDS011;46158;52.850;6.970;2022-08-04T08:30:50;8.23;;;2.70;;
60312;SDS011;46158;52.850;6.970;2022-08-04T08:33:16;7.55;;;2.78;;
60312;SDS011;46158;52.850;6.970;2022-08-04T08:39:02;7.80;;;2.65;;
60312;SDS011;46158;52.850;6.970;2022-08-04T08:47:00;7.38;;;2.60;;
60312;SDS011;46158;52.850;6.970;2022-08-04T08:55:38;5.20;;;2.60;;
60312;SDS011;46158;52.850;6.970;2022-08-04T09:09:14;7.07;;;2.80;;
60312;SDS011;46158;52.850;6.970;2022-08-04T09:11:53;6.93;;;2.70;;
60312;SDS011;46158;52.850;6.970;2022-08-04T09:14:40;8.48;;;2.80;;
60312;SDS011;46158;52.850;6.970;2022-08-04T09:17:26;10.25;;;2.90;;
60312;SDS011;46158;52.850;6.970;2022-08-04T09:23:07;6.75;;;2.70;;
60312;SDS011;46158;52.850;6.970;2022-08-04T09:25:45;7.95;;;2.80;;
60312;SDS011;46158;52.850;6.970;2022-08-04T09:28:20;7.70;;;2.90;;
60312;SDS011;46158;52.850;6.970;2022-08-04T09:33:43;8.18;;;2.90;;
60312;SDS011;46158;52.850;6.970;2022-08-04T09:36:41;5.63;;;2.65;;
60312;SDS011;46158;52.850;6.970;2022-08-04T09:42:17;6.85;;;2.70;;
60312;SDS011;46158;52.850;6.970;2022-08-04T09:46:07;8.75;;;2.92;;
60312;SDS011;46158;52.850;6.970;2022-08-04T09:48:08;7.25;;;2.90;;
60312;SDS011;46158;52.850;6.970;2022-08-04T09:50:41;10.15;;;2.75;;
60312;SDS011;46158;52.850;6.970;2022-08-04T09:58:38;9.07;;;2.90;;
60312;SDS011;46158;52.850;6.970;2022-08-04T10:01:20;9.00;;;2.80;;
60312;SDS011;46158;52.850;6.970;2022-08-04T10:03:49;10.10;;;2.97;;
60312;SDS011;46158;52.850;6.970;2022-08-04T10:15:02;9.43;;;2.90;;
60312;SDS011;46158;52.850;6.970;2022-08-04T10:20:47;8.05;;;3.00;;
60312;SDS011;46158;52.850;6.970;2022-08-04T10:34:39;8.25;;;3.08;;
60312;SDS011;46158;52.850;6.970;2022-08-04T10:37:19;8.75;;;2.80;;
60312;SDS011;46158;52.850;6.970;2022-08-04T10:39:55;11.43;;;3.00;;
60312;SDS011;46158;52.850;6.970;2022-08-04T10:42:49;9.18;;;3.15;;
60312;SDS011;46158;52.850;6.970;2022-08-04T10:45:24;9.68;;;2.80;;
60312;SDS011;46158;52.850;6.970;2022-08-04T10:48:00;11.02;;;3.17;;
60312;SDS011;46158;52.850;6.970;2022-08-04T10:50:33;8.93;;;2.90;;
60312;SDS011;46158;52.850;6.970;2022-08-04T10:55:35;7.95;;;3.00;;
60312;SDS011;46158;52.850;6.970;2022-08-04T10:58:08;10.90;;;2.88;;
60312;SDS011;46158;52.850;6.970;2022-08-04T11:00:40;10.77;;;3.03;;
60312;SDS011;46158;52.850;6.970;2022-08-04T11:03:14;9.88;;;2.80;;
60312;SDS011;46158;52.850;6.970;2022-08-04T11:08:16;7.25;;;2.70;;
60312;SDS011;46158;52.850;6.970;2022-08-04T11:10:58;8.00;;;3.10;;
60312;SDS011;46158;52.850;6.970;2022-08-04T11:13:44;6.72;;;2.78;;
60312;SDS011;46158;52.850;6.970;2022-08-04T11:16:21;9.60;;;2.90;;
60312;SDS011;46158;52.850;6.970;2022-08-04T11:21:31;11.32;;;2.95;;
60312;SDS011;46158;52.850;6.970;2022-08-04T11:24:03;12.52;;;3.55;;
60312;SDS011;46158;52.850;6.970;2022-08-04T11:29:27;8.23;;;3.15;;
60312;SDS011;46158;52.850;6.970;2022-08-04T11:31:58;10.30;;;3.17;;
60312;SDS011;46158;52.850;6.970;2022-08-04T11:34:26;11.02;;;3.13;;
60312;SDS011;46158;52.850;6.970;2022-08-04T11:44:51;8.85;;;2.92;;
60312;SDS011;46158;52.850;6.970;2022-08-04T11:50:10;8.82;;;3.00;;
60312;SDS011;46158;52.850;6.970;2022-08-04T11:52:44;11.57;;;3.28;;
60312;SDS011;46158;52.850;6.970;2022-08-04T11:55:12;7.70;;;3.40;;
60312;SDS011;46158;52.850;6.970;2022-08-04T11:57:42;11.80;;;3.35;;
60312;SDS011;46158;52.850;6.970;2022-08-04T12:00:11;11.23;;;3.30;;
60312;SDS011;46158;52.850;6.970;2022-08-04T12:05:17;9.23;;;3.33;;
60312;SDS011;46158;52.850;6.970;2022-08-04T12:10:48;9.75;;;3.05;;
60312;SDS011;46158;52.850;6.970;2022-08-04T12:19:21;9.65;;;3.10;;
60312;SDS011;46158;52.850;6.970;2022-08-04T12:21:53;8.60;;;2.97;;
60312;SDS011;46158;52.850;6.970;2022-08-04T12:24:25;8.40;;;3.10;;
60312;SDS011;46158;52.850;6.970;2022-08-04T12:26:56;10.77;;;3.10;;
60312;SDS011;46158;52.850;6.970;2022-08-04T12:29:26;9.23;;;3.20;;
60312;SDS011;46158;52.850;6.970;2022-08-04T12:31:59;8.30;;;3.08;;
60312;SDS011;46158;52.850;6.970;2022-08-04T12:37:26;10.68;;;3.17;;
60312;SDS011;46158;52.850;6.970;2022-08-04T12:40:00;8.15;;;3.00;;
60312;SDS011;46158;52.850;6.970;2022-08-04T12:42:35;7.20;;;2.80;;
60312;SDS011;46158;52.850;6.970;2022-08-04T12:45:05;10.23;;;3.20;;
60312;SDS011;46158;52.850;6.970;2022-08-04T12:47:32;8.18;;;2.90;;
60312;SDS011;46158;52.850;6.970;2022-08-04T12:50:00;8.52;;;2.88;;
60312;SDS011;46158;52.850;6.970;2022-08-04T12:52:32;7.38;;;3.03;;
60312;SDS011;46158;52.850;6.970;2022-08-04T12:55:16;10.88;;;3.08;;
60312;SDS011;46158;52.850;6.970;2022-08-04T12:57:43;8.30;;;3.00;;
60312;SDS011;46158;52.850;6.970;2022-08-04T13:00:10;7.72;;;2.88;;
60312;SDS011;46158;52.850;6.970;2022-08-04T13:02:48;8.30;;;3.15;;
60312;SDS011;46158;52.850;6.970;2022-08-04T13:05:15;6.90;;;2.90;;
60312;SDS011;46158;52.850;6.970;2022-08-04T13:07:45;7.50;;;2.88;;
60312;SDS011;46158;52.850;6.970;2022-08-04T13:10:15;8.95;;;3.00;;
60312;SDS011;46158;52.850;6.970;2022-08-04T13:13:03;9.32;;;2.88;;
60312;SDS011;46158;52.850;6.970;2022-08-04T13:15:28;8.40;;;2.90;;
60312;SDS011;46158;52.850;6.970;2022-08-04T13:17:59;8.93;;;2.80;;
60312;SDS011;46158;52.850;6.970;2022-08-04T13:20:31;7.18;;;2.72;;
60312;SDS011;46158;52.850;6.970;2022-08-04T13:22:59;7.20;;;2.85;;
60312;SDS011;46158;52.850;6.970;2022-08-04T13:25:36;8.85;;;2.92;;
60312;SDS011;46158;52.850;6.970;2022-08-04T13:28:11;7.78;;;2.88;;
60312;SDS011;46158;52.850;6.970;2022-08-04T13:30:47;8.57;;;3.00;;
60312;SDS011;46158;52.850;6.970;2022-08-04T13:33:17;7.88;;;2.70;;
60312;SDS011;46158;52.850;6.970;2022-08-04T13:35:44;7.75;;;3.20;;
60312;SDS011;46158;52.850;6.970;2022-08-04T13:38:12;6.53;;;2.70;;
60312;SDS011;46158;52.850;6.970;2022-08-04T13:40:40;7.30;;;2.75;;
60312;SDS011;46158;52.850;6.970;2022-08-04T13:43:07;8.00;;;2.67;;
60312;SDS011;46158;52.850;6.970;2022-08-04T13:45:35;8.20;;;2.85;;
60312;SDS011;46158;52.850;6.970;2022-08-04T13:48:02;7.43;;;2.85;;
60312;SDS011;46158;52.850;6.970;2022-08-04T13:50:30;8.20;;;2.78;;
60312;SDS011;46158;52.850;6.970;2022-08-04T13:52:58;6.90;;;2.80;;
60312;SDS011;46158;52.850;6.970;2022-08-04T13:55:26;10.50;;;3.00;;
60312;SDS011;46158;52.850;6.970;2022-08-04T13:57:57;8.52;;;2.90;;
60312;SDS011;46158;52.850;6.970;2022-08-04T14:00:36;8.63;;;2.83;;
60312;SDS011;46158;52.850;6.970;2022-08-04T14:03:06;6.95;;;2.80;;
60312;SDS011;46158;52.850;6.970;2022-08-04T14:05:32;6.70;;;2.60;;
60312;SDS011;46158;52.850;6.970;2022-08-04T14:10:33;8.77;;;2.63;;
60312;SDS011;46158;52.850;6.970;2022-08-04T14:12:59;5.13;;;2.60;;
60312;SDS011;46158;52.850;6.970;2022-08-04T14:15:38;6.55;;;2.80;;
60312;SDS011;46158;52.850;6.970;2022-08-04T14:23:28;5.57;;;2.40;;
60312;SDS011;46158;52.850;6.970;2022-08-04T14:26:24;7.95;;;2.70;;
60312;SDS011;46158;52.850;6.970;2022-08-04T14:28:50;7.25;;;2.88;;
60312;SDS011;46158;52.850;6.970;2022-08-04T14:31:17;8.73;;;2.90;;
60312;SDS011;46158;52.850;6.970;2022-08-04T14:33:45;7.30;;;2.50;;
60312;SDS011;46158;52.850;6.970;2022-08-04T14:36:12;9.30;;;2.80;;
60312;SDS011;46158;52.850;6.970;2022-08-04T14:39:01;4.95;;;2.50;;
60312;SDS011;46158;52.850;6.970;2022-08-04T14:41:26;6.28;;;2.60;;
60312;SDS011;46158;52.850;6.970;2022-08-04T14:43:54;8.98;;;2.67;;
60312;SDS011;46158;52.850;6.970;2022-08-04T14:46:24;8.30;;;2.70;;
60312;SDS011;46158;52.850;6.970;2022-08-04T14:49:07;6.20;;;2.40;;
60312;SDS011;46158;52.850;6.970;2022-08-04T14:51:42;7.82;;;3.03;;
60312;SDS011;46158;52.850;6.970;2022-08-04T14:54:24;5.25;;;2.40;;
60312;SDS011;46158;52.850;6.970;2022-08-04T14:56:53;5.65;;;2.40;;
60312;SDS011;46158;52.850;6.970;2022-08-04T14:59:22;6.20;;;2.67;;
60312;SDS011;46158;52.850;6.970;2022-08-04T15:01:49;5.50;;;2.30;;
60312;SDS011;46158;52.850;6.970;2022-08-04T15:04:15;6.80;;;2.70;;
60312;SDS011;46158;52.850;6.970;2022-08-04T15:06:42;5.93;;;2.50;;
60312;SDS011;46158;52.850;6.970;2022-08-04T15:09:08;8.60;;;2.42;;
60312;SDS011;46158;52.850;6.970;2022-08-04T15:11:35;4.68;;;2.28;;
60312;SDS011;46158;52.850;6.970;2022-08-04T15:14:02;4.35;;;2.60;;
60312;SDS011;46158;52.850;6.970;2022-08-04T15:16:30;7.55;;;2.50;;
60312;SDS011;46158;52.850;6.970;2022-08-04T15:18:57;4.10;;;2.10;;
60312;SDS011;46158;52.850;6.970;2022-08-04T15:21:23;7.43;;;2.55;;
60312;SDS011;46158;52.850;6.970;2022-08-04T15:23:53;4.75;;;2.35;;
60312;SDS011;46158;52.850;6.970;2022-08-04T15:26:30;6.22;;;2.28;;
60312;SDS011;46158;52.850;6.970;2022-08-04T15:29:46;5.05;;;2.22;;
60312;SDS011;46158;52.850;6.970;2022-08-04T15:31:58;2.60;;;1.90;;
60312;SDS011;46158;52.850;6.970;2022-08-04T15:34:42;4.15;;;2.20;;
60312;SDS011;46158;52.850;6.970;2022-08-04T15:37:17;5.20;;;2.28;;
60312;SDS011;46158;52.850;6.970;2022-08-04T15:45:48;4.85;;;2.30;;
60312;SDS011;46158;52.850;6.970;2022-08-04T15:53:27;5.18;;;2.33;;
60312;SDS011;46158;52.850;6.970;2022-08-04T15:55:56;5.82;;;2.30;;
60312;SDS011;46158;52.850;6.970;2022-08-04T15:58:21;5.18;;;2.42;;
60312;SDS011;46158;52.850;6.970;2022-08-04T16:16:30;7.60;;;2.40;;
60312;SDS011;46158;52.850;6.970;2022-08-04T16:19:44;3.92;;;2.20;;
60312;SDS011;46158;52.850;6.970;2022-08-04T16:24:59;3.40;;;2.20;;
60312;SDS011;46158;52.850;6.970;2022-08-04T16:27:38;4.57;;;2.20;;
60312;SDS011;46158;52.850;6.970;2022-08-04T16:30:09;4.03;;;2.25;;
60312;SDS011;46158;52.850;6.970;2022-08-04T16:32:44;3.72;;;2.30;;
60312;SDS011;46158;52.850;6.970;2022-08-04T16:35:18;4.53;;;2.13;;
60312;SDS011;46158;52.850;6.970;2022-08-04T16:37:43;6.88;;;2.30;;
60312;SDS011;46158;52.850;6.970;2022-08-04T16:43:01;4.35;;;2.10;;
60312;SDS011;46158;52.850;6.970;2022-08-04T16:45:39;3.97;;;2.10;;
60312;SDS011;46158;52.850;6.970;2022-08-04T16:48:09;3.50;;;2.10;;
60312;SDS011;46158;52.850;6.970;2022-08-04T16:50:52;3.92;;;2.20;;
60312;SDS011;46158;52.850;6.970;2022-08-04T16:53:22;6.38;;;2.20;;
60312;SDS011;46158;52.850;6.970;2022-08-04T16:55:51;3.38;;;2.20;;
60312;SDS011;46158;52.850;6.970;2022-08-04T16:58:28;3.58;;;2.00;;
60312;SDS011;46158;52.850;6.970;2022-08-04T17:00:55;4.78;;;2.10;;
60312;SDS011;46158;52.850;6.970;2022-08-04T17:03:22;5.28;;;2.47;;
60312;SDS011;46158;52.850;6.970;2022-08-04T17:05:49;3.60;;;2.13;;
60312;SDS011;46158;52.850;6.970;2022-08-04T17:08:28;4.93;;;2.30;;
60312;SDS011;46158;52.850;6.970;2022-08-04T17:10:55;5.88;;;2.30;;
60312;SDS011;46158;52.850;6.970;2022-08-04T17:16:01;4.20;;;2.33;;
60312;SDS011;46158;52.850;6.970;2022-08-04T17:18:39;5.97;;;2.20;;
60312;SDS011;46158;52.850;6.970;2022-08-04T17:21:08;5.80;;;2.38;;
60312;SDS011;46158;52.850;6.970;2022-08-04T17:23:40;5.32;;;2.40;;
60312;SDS011;46158;52.850;6.970;2022-08-04T17:26:11;7.05;;;2.38;;
60312;SDS011;46158;52.850;6.970;2022-08-04T17:28:44;5.78;;;2.42;;
60312;SDS011;46158;52.850;6.970;2022-08-04T17:31:11;3.08;;;2.10;;
60312;SDS011;46158;52.850;6.970;2022-08-04T17:33:38;6.00;;;2.20;;
60312;SDS011;46158;52.850;6.970;2022-08-04T17:36:07;5.07;;;2.20;;
60312;SDS011;46158;52.850;6.970;2022-08-04T17:38:39;5.70;;;2.20;;
60312;SDS011;46158;52.850;6.970;2022-08-04T17:41:07;4.63;;;2.22;;
60312;SDS011;46158;52.850;6.970;2022-08-04T17:48:43;4.82;;;2.20;;
60312;SDS011;46158;52.850;6.970;2022-08-04T17:53:39;5.00;;;2.17;;
60312;SDS011;46158;52.850;6.970;2022-08-04T17:56:05;4.43;;;2.10;;
60312;SDS011;46158;52.850;6.970;2022-08-04T17:59:09;6.68;;;2.40;;
60312;SDS011;46158;52.850;6.970;2022-08-04T18:01:44;4.75;;;2.20;;
60312;SDS011;46158;52.850;6.970;2022-08-04T18:12:30;4.15;;;2.15;;
60312;SDS011;46158;52.850;6.970;2022-08-04T18:15:02;5.63;;;2.10;;
60312;SDS011;46158;52.850;6.970;2022-08-04T18:17:38;5.15;;;2.20;;
60312;SDS011;46158;52.850;6.970;2022-08-04T18:20:11;5.80;;;2.10;;
60312;SDS011;46158;52.850;6.970;2022-08-04T18:22:39;5.20;;;2.03;;
60312;SDS011;46158;52.850;6.970;2022-08-04T18:25:06;4.55;;;2.20;;
60312;SDS011;46158;52.850;6.970;2022-08-04T18:27:33;5.13;;;2.33;;
60312;SDS011;46158;52.850;6.970;2022-08-04T18:29:59;5.40;;;2.30;;
60312;SDS011;46158;52.850;6.970;2022-08-04T18:32:26;3.50;;;2.10;;
60312;SDS011;46158;52.850;6.970;2022-08-04T18:34:52;3.50;;;2.13;;
60312;SDS011;46158;52.850;6.970;2022-08-04T18:37:18;4.13;;;2.30;;
60312;SDS011;46158;52.850;6.970;2022-08-04T18:39:44;2.53;;;2.10;;
60312;SDS011;46158;52.850;6.970;2022-08-04T18:42:11;2.58;;;1.90;;
60312;SDS011;46158;52.850;6.970;2022-08-04T18:44:37;2.40;;;1.88;;
60312;SDS011;46158;52.850;6.970;2022-08-04T18:47:03;5.28;;;2.00;;
60312;SDS011;46158;52.850;6.970;2022-08-04T18:49:29;3.65;;;2.20;;
60312;SDS011;46158;52.850;6.970;2022-08-04T18:51:55;3.45;;;2.05;;
60312;SDS011;46158;52.850;6.970;2022-08-04T18:54:22;5.10;;;2.22;;
60312;SDS011;46158;52.850;6.970;2022-08-04T18:56:49;4.25;;;2.00;;
60312;SDS011;46158;52.850;6.970;2022-08-04T18:59:17;3.35;;;2.10;;
60312;SDS011;46158;52.850;6.970;2022-08-04T19:01:43;4.82;;;2.22;;
60312;SDS011;46158;52.850;6.970;2022-08-04T19:04:09;3.10;;;2.00;;
60312;SDS011;46158;52.850;6.970;2022-08-04T19:06:35;3.53;;;2.15;;
60312;SDS011;46158;52.850;6.970;2022-08-04T19:09:02;3.00;;;2.05;;
60312;SDS011;46158;52.850;6.970;2022-08-04T19:11:29;3.55;;;2.17;;
60312;SDS011;46158;52.850;6.970;2022-08-04T19:13:56;4.75;;;2.13;;
60312;SDS011;46158;52.850;6.970;2022-08-04T19:16:22;4.80;;;2.30;;
60312;SDS011;46158;52.850;6.970;2022-08-04T19:18:48;6.80;;;2.28;;
60312;SDS011;46158;52.850;6.970;2022-08-04T19:21:14;3.63;;;1.92;;
60312;SDS011;46158;52.850;6.970;2022-08-04T19:23:39;3.10;;;2.08;;
60312;SDS011;46158;52.850;6.970;2022-08-04T19:26:05;3.53;;;2.10;;
60312;SDS011;46158;52.850;6.970;2022-08-04T19:28:32;4.13;;;2.13;;
60312;SDS011;46158;52.850;6.970;2022-08-04T19:30:59;2.83;;;2.05;;
60312;SDS011;46158;52.850;6.970;2022-08-04T19:33:25;4.30;;;2.28;;
60312;SDS011;46158;52.850;6.970;2022-08-04T19:35:51;4.35;;;2.20;;
60312;SDS011;46158;52.850;6.970;2022-08-04T19:38:17;2.97;;;2.00;;
60312;SDS011;46158;52.850;6.970;2022-08-04T19:40:44;4.80;;;2.20;;
60312;SDS011;46158;52.850;6.970;2022-08-04T19:43:10;3.95;;;2.30;;
60312;SDS011;46158;52.850;6.970;2022-08-04T19:45:36;5.22;;;2.10;;
60312;SDS011;46158;52.850;6.970;2022-08-04T19:48:02;4.90;;;2.10;;
60312;SDS011;46158;52.850;6.970;2022-08-04T19:50:29;4.70;;;2.30;;
60312;SDS011;46158;52.850;6.970;2022-08-04T19:52:56;3.97;;;2.10;;
60312;SDS011;46158;52.850;6.970;2022-08-04T19:55:22;6.18;;;2.30;;
60312;SDS011;46158;52.850;6.970;2022-08-04T19:57:51;2.85;;;2.20;;
60312;SDS011;46158;52.850;6.970;2022-08-04T20:00:17;5.85;;;2.42;;
60312;SDS011;46158;52.850;6.970;2022-08-04T20:02:45;5.43;;;2.50;;
60312;SDS011;46158;52.850;6.970;2022-08-04T20:05:10;6.38;;;2.35;;